Time;durP1;ratioP1;P1;durP2;ratioP2;P2;SDS_P1;SDS_P2;PMS_P1;PMS_P2;Temp;Humidity;BMP_temperature;BMP_pressure;BME280_temperature;BME280_humidity;BME280_pressure;Samples;Min_cycle;Max_cycle;Signal;HPM_P1;HPM_P2
2021/08/26 00:00:32;;;;;;;30.73;8.37;;;;;;;11.24;100.00;100687.84;5072735;28;20474;-69
2021/08/26 00:05:47;;;;;;;38.67;8.68;;;;;;;11.24;100.00;100697.69;5089071;28;20036;-69
2021/08/26 00:08:16;;;;;;;42.20;9.68;;;;;;;11.19;100.00;100703.53;5089481;28;20114;-69
2021/08/26 00:10:41;;;;;;;42.70;8.90;;;;;;;11.22;100.00;100700.53;5090419;28;20020;-69
2021/08/26 00:13:07;;;;;;;42.15;8.80;;;;;;;11.23;100.00;100698.72;5089912;28;20039;-69
2021/08/26 00:15:34;;;;;;;46.67;9.13;;;;;;;11.16;100.00;100691.34;5072300;28;20032;-69
2021/08/26 00:18:00;;;;;;;45.40;8.68;;;;;;;11.15;100.00;100695.03;5088803;28;20051;-69
2021/08/26 00:20:26;;;;;;;48.08;8.77;;;;;;;11.12;100.00;100689.19;5090217;28;20028;-69
2021/08/26 00:22:51;;;;;;;39.78;8.48;;;;;;;11.08;100.00;100687.88;5088801;28;20032;-69
2021/08/26 00:25:17;;;;;;;41.83;8.53;;;;;;;11.07;100.00;100686.19;5089988;28;20036;-69
2021/08/26 00:27:43;;;;;;;31.50;9.07;;;;;;;11.13;100.00;100690.88;5089574;28;20269;-69
2021/08/26 00:30:08;;;;;;;53.90;8.75;;;;;;;11.10;100.00;100688.53;5090192;28;20169;-69
2021/08/26 00:32:34;;;;;;;40.45;10.48;;;;;;;11.04;100.00;100691.88;5089461;28;20188;-69
2021/08/26 00:34:59;;;;;;;36.13;9.77;;;;;;;11.05;100.00;100677.50;5088830;28;20478;-69
2021/08/26 00:37:24;;;;;;;38.97;9.17;;;;;;;11.10;100.00;100685.88;5088405;28;20036;-69
2021/08/26 00:39:50;;;;;;;47.07;9.90;;;;;;;11.14;100.00;100688.03;5089001;28;20389;-69
2021/08/26 00:42:15;;;;;;;42.73;10.30;;;;;;;11.22;100.00;100681.84;5089639;28;20412;-69
2021/08/26 00:44:41;;;;;;;48.03;9.32;;;;;;;11.13;100.00;100680.19;5088376;28;20359;-69
2021/08/26 00:47:09;;;;;;;39.00;9.90;;;;;;;11.10;100.00;100678.69;5088587;28;20039;-69
2021/08/26 00:49:34;;;;;;;45.97;10.85;;;;;;;11.10;100.00;100684.03;5089172;28;20675;-69
2021/08/26 00:52:01;;;;;;;47.20;8.80;;;;;;;11.11;100.00;100679.50;5087947;28;20463;-69
2021/08/26 00:54:27;;;;;;;50.20;9.33;;;;;;;11.05;100.00;100677.50;5089181;28;20039;-69
2021/08/26 00:56:55;;;;;;;49.45;9.93;;;;;;;11.07;100.00;100673.66;5088318;28;20036;-69
2021/08/26 00:59:20;;;;;;;40.40;9.15;;;;;;;10.96;100.00;100687.34;5089081;28;20055;-69
2021/08/26 01:02:08;;;;;;;38.77;7.67;;;;;;;11.02;100.00;100677.84;5089264;28;20466;-69
2021/08/26 01:04:42;;;;;;;57.03;12.98;;;;;;;11.11;100.00;100684.84;5088829;28;20487;-69
2021/08/26 01:07:30;;;;;;;31.05;8.30;;;;;;;11.03;100.00;100672.34;5088895;28;20052;-69
2021/08/26 01:10:04;;;;;;;52.75;10.38;;;;;;;11.16;100.00;100677.16;5087913;28;20036;-69
2021/08/26 01:12:30;;;;;;;46.30;9.00;;;;;;;11.23;100.00;100674.66;5088013;28;20043;-69
2021/08/26 01:14:56;;;;;;;39.05;9.10;;;;;;;11.15;100.00;100667.47;5087791;28;20032;-69
2021/08/26 01:17:23;;;;;;;50.30;9.13;;;;;;;11.14;100.00;100665.81;5088774;28;20036;-69
2021/08/26 01:19:49;;;;;;;36.63;9.57;;;;;;;11.10;100.00;100657.31;5087746;28;20040;-69
2021/08/26 01:22:16;;;;;;;43.23;10.13;;;;;;;11.12;100.00;100665.13;5086056;28;20640;-69
2021/08/26 01:24:45;;;;;;;43.33;9.30;;;;;;;11.05;100.00;100669.47;5087130;28;20024;-69
2021/08/26 01:28:03;;;;;;;28.30;8.23;;;;;;;11.03;100.00;100682.16;5088571;28;20138;-68
2021/08/26 01:30:30;;;;;;;35.33;7.47;;;;;;;11.02;100.00;100673.31;5088316;28;20046;-69
2021/08/26 01:33:00;;;;;;;38.88;8.40;;;;;;;11.08;100.00;100661.97;5088453;28;20028;-69
2021/08/26 01:35:26;;;;;;;43.53;9.10;;;;;;;11.07;100.00;100659.47;5088274;28;20109;-69
2021/08/26 01:37:52;;;;;;;45.80;10.23;;;;;;;11.10;100.00;100662.66;5087489;28;20027;-69
2021/08/26 01:40:31;;;;;;;35.67;8.40;;;;;;;11.14;100.00;100668.47;5087435;28;20097;-69
2021/08/26 01:42:56;;;;;;;44.58;9.07;;;;;;;11.14;100.00;100665.81;5088402;28;20042;-69
2021/08/26 01:45:22;;;;;;;35.83;8.23;;;;;;;11.18;100.00;100661.78;5087923;28;20028;-69
2021/08/26 01:47:47;;;;;;;44.67;10.20;;;;;;;11.23;100.00;100659.44;5087247;28;20126;-69
2021/08/26 01:50:12;;;;;;;46.83;9.97;;;;;;;11.22;100.00;100665.81;5088377;28;20138;-69
2021/08/26 01:52:38;;;;;;;43.77;10.13;;;;;;;11.24;100.00;100663.81;5087745;28;20036;-69
2021/08/26 01:55:04;;;;;;;39.60;9.77;;;;;;;11.26;100.00;100667.16;5087085;28;20032;-69
2021/08/26 01:57:32;;;;;;;42.63;9.43;;;;;;;11.29;100.00;100663.31;5087893;28;20369;-69
2021/08/26 02:00:06;;;;;;;37.90;8.45;;;;;;;11.31;100.00;100662.13;5088366;28;20107;-69
2021/08/26 02:02:32;;;;;;;37.60;8.70;;;;;;;11.30;100.00;100660.44;5088084;28;20532;-68
2021/08/26 02:04:57;;;;;;;26.23;8.03;;;;;;;11.31;100.00;100655.94;5087863;28;20131;-69
2021/08/26 02:07:23;;;;;;;50.13;8.57;;;;;;;11.29;100.00;100653.44;5087569;28;20039;-69
2021/08/26 02:09:48;;;;;;;30.37;7.67;;;;;;;11.30;100.00;100660.44;5088180;28;20122;-69
2021/08/26 02:12:13;;;;;;;31.43;9.13;;;;;;;11.33;100.00;100649.44;5087871;28;20050;-69
2021/08/26 02:14:39;;;;;;;47.00;9.33;;;;;;;11.38;100.00;100655.09;5088386;28;20056;-69
2021/08/26 02:17:04;;;;;;;44.80;8.80;;;;;;;11.52;100.00;100656.25;5087699;28;20043;-69
2021/08/26 02:19:30;;;;;;;45.17;9.23;;;;;;;11.52;100.00;100656.25;5088300;28;20047;-69
2021/08/26 02:21:55;;;;;;;45.40;7.90;;;;;;;11.50;100.00;100654.75;5087947;28;20036;-69
2021/08/26 02:24:20;;;;;;;37.87;8.73;;;;;;;11.46;100.00;100648.88;5087920;28;20040;-69
2021/08/26 02:26:46;;;;;;;34.10;9.07;;;;;;;11.53;100.00;100660.56;5087726;28;20040;-69
2021/08/26 02:29:11;;;;;;;44.87;8.80;;;;;;;11.53;100.00;100654.38;5087331;28;20028;-69
2021/08/26 02:31:37;;;;;;;31.50;8.60;;;;;;;11.51;100.00;100656.41;5088119;28;20896;-69
2021/08/26 02:34:02;;;;;;;50.50;10.47;;;;;;;11.52;100.00;100656.25;5086864;28;20082;-69
2021/08/26 02:36:27;;;;;;;46.33;9.83;;;;;;;11.53;100.00;100647.19;5087828;28;20043;-69
2021/08/26 02:38:53;;;;;;;36.53;9.03;;;;;;;11.53;100.00;100652.53;5086627;28;20059;-69
2021/08/26 02:41:19;;;;;;;38.25;8.50;;;;;;;11.55;100.00;100655.88;5088031;28;20365;-69
2021/08/26 02:43:44;;;;;;;46.27;9.23;;;;;;;11.57;100.00;100648.53;5087796;28;20055;-69
2021/08/26 02:46:09;;;;;;;37.50;9.20;;;;;;;11.71;100.00;100647.00;5087515;28;20101;-69
2021/08/26 02:48:35;;;;;;;48.77;10.40;;;;;;;11.80;100.00;100645.97;5087704;28;20032;-69
2021/08/26 02:51:01;;;;;;;40.03;7.85;;;;;;;11.86;100.00;100651.63;5086353;28;20278;-69
2021/08/26 02:53:27;;;;;;;36.03;7.63;;;;;;;11.80;100.00;100645.13;5086452;28;20040;-69
2021/08/26 02:55:52;;;;;;;42.67;9.60;;;;;;;11.87;100.00;100646.13;5086666;28;20055;-69
2021/08/26 02:58:18;;;;;;;29.38;8.77;;;;;;;11.90;100.00;100647.63;5086719;28;20085;-69
2021/08/26 03:00:43;;;;;;;39.33;8.90;;;;;;;11.94;100.00;100651.59;5086851;28;20039;-69
2021/08/26 03:06:36;;;;;;;30.92;8.00;;;;;;;11.77;100.00;100646.28;5087528;28;20411;-69
2021/08/26 03:09:01;;;;;;;37.50;8.97;;;;;;;11.83;100.00;100650.13;5087523;28;20153;-69
2021/08/26 03:11:26;;;;;;;37.73;8.50;;;;;;;11.89;100.00;100654.78;5086665;28;20024;-69
2021/08/26 03:17:34;;;;;;;36.88;6.95;;;;;;;12.01;100.00;100652.56;5088091;28;20046;-69
2021/08/26 03:20:00;;;;;;;36.67;7.97;;;;;;;12.00;100.00;100649.06;5089982;28;20099;-69
2021/08/26 03:22:25;;;;;;;22.67;7.23;;;;;;;11.96;100.00;100649.59;5091103;28;20035;-69
2021/08/26 03:24:50;;;;;;;31.73;7.07;;;;;;;12.02;100.00;100659.59;5089851;28;20170;-69
2021/08/26 03:27:16;;;;;;;27.33;6.20;;;;;;;12.18;100.00;100653.34;5089994;28;20031;-69
2021/08/26 03:29:41;;;;;;;31.97;6.37;;;;;;;12.18;100.00;100653.34;5090096;28;20388;-69
2021/08/26 03:32:07;;;;;;;25.43;6.03;;;;;;;12.26;100.00;100655.97;5089832;28;20036;-69
2021/08/26 03:34:32;;;;;;;30.95;8.02;;;;;;;12.32;100.00;100662.47;5089452;28;20289;-69
2021/08/26 03:36:58;;;;;;;26.57;6.87;;;;;;;12.28;100.00;100659.31;5089597;28;20048;-69
2021/08/26 03:39:23;;;;;;;22.67;5.97;;;;;;;12.25;100.00;100657.81;5091067;28;20103;-69
2021/08/26 03:41:48;;;;;;;18.07;5.67;;;;;;;12.27;100.00;100659.47;5090530;28;20360;-69
2021/08/26 03:44:14;;;;;;;20.47;5.27;;;;;;;12.30;100.00;100661.81;5090618;28;20032;-69
2021/08/26 03:46:39;;;;;;;24.07;5.97;;;;;;;12.25;100.00;100665.84;5089436;28;20465;-69
2021/08/26 03:49:04;;;;;;;27.53;4.73;;;;;;;12.28;100.00;100658.47;5089682;28;20047;-69
2021/08/26 03:51:30;;;;;;;21.03;4.47;;;;;;;12.25;100.00;100649.78;5089848;28;20039;-69
2021/08/26 03:53:55;;;;;;;13.03;3.87;;;;;;;12.32;100.00;100659.81;5072733;28;20865;-69
2021/08/26 03:56:20;;;;;;;19.13;4.00;;;;;;;12.36;100.00;100663.78;5089936;28;20040;-69
2021/08/26 04:02:27;;;;;;;18.90;3.83;;;;;;;12.42;100.00;100649.69;5090183;28;20042;-69
2021/08/26 04:04:53;;;;;;;18.27;3.97;;;;;;;12.38;100.00;100648.38;5090237;28;20036;-69
2021/08/26 04:07:18;;;;;;;22.20;3.83;;;;;;;12.45;100.00;100633.25;5089902;28;20035;-69
2021/08/26 04:09:45;;;;;;;13.87;4.10;;;;;;;12.50;100.00;100649.63;5089224;28;20128;-69
2021/08/26 04:12:10;;;;;;;20.80;4.28;;;;;;;12.48;100.00;100640.97;5071995;28;20063;-69
2021/08/26 04:14:36;;;;;;;24.67;3.30;;;;;;;12.47;100.00;100633.91;5089183;28;20537;-69
2021/08/26 04:17:01;;;;;;;12.07;2.90;;;;;;;12.46;100.00;100634.94;5089886;28;20035;-69
2021/08/26 04:19:27;;;;;;;9.97;2.83;;;;;;;12.42;100.00;100620.25;5090312;28;20046;-69
2021/08/26 04:21:52;;;;;;;13.10;2.57;;;;;;;12.44;100.00;100626.25;5089741;28;20035;-69
2021/08/26 04:24:17;;;;;;;15.10;3.03;;;;;;;12.43;100.00;100620.06;5089996;28;20067;-69
2021/08/26 04:26:43;;;;;;;15.53;2.60;;;;;;;12.47;100.00;100625.88;5089597;28;20060;-69
2021/08/26 04:29:08;;;;;;;26.20;4.70;;;;;;;12.50;100.00;100622.84;5089762;28;20127;-69
2021/08/26 04:31:34;;;;;;;14.55;2.78;;;;;;;12.45;100.00;100626.09;5088925;28;20123;-69
2021/08/26 04:34:00;;;;;;;13.57;2.83;;;;;;;12.46;100.00;100625.06;5088634;28;20043;-69
2021/08/26 04:36:25;;;;;;;13.70;2.43;;;;;;;12.53;100.00;100624.38;5071735;28;20044;-69
2021/08/26 04:38:51;;;;;;;10.00;2.30;;;;;;;12.59;100.00;100634.34;5089607;28;20027;-69
2021/08/26 04:41:16;;;;;;;13.10;2.50;;;;;;;12.66;100.00;100636.13;5089808;28;20123;-69
2021/08/26 04:43:41;;;;;;;7.50;2.27;;;;;;;12.73;100.00;100636.25;5088463;28;20089;-69
2021/08/26 04:46:07;;;;;;;11.10;1.83;;;;;;;12.78;100.00;100639.25;5089329;28;20032;-69
2021/08/26 04:48:32;;;;;;;7.20;2.10;;;;;;;12.82;100.00;100650.41;5088627;28;20119;-69
2021/08/26 04:50:57;;;;;;;13.13;2.00;;;;;;;12.83;100.00;100628.81;5088911;28;20071;-69
2021/08/26 04:53:23;;;;;;;8.70;1.60;;;;;;;12.91;100.00;100609.16;5088287;28;20081;-69
2021/08/26 04:55:48;;;;;;;9.67;1.37;;;;;;;12.89;99.50;100603.97;5088358;28;20093;-69
2021/08/26 04:58:13;;;;;;;6.60;1.57;;;;;;;12.93;99.45;100608.97;5089273;28;20532;-69
2021/08/26 05:00:39;;;;;;;12.30;2.87;;;;;;;12.93;100.00;100641.13;5088618;28;20418;-69
2021/08/26 05:03:05;;;;;;;10.20;1.63;;;;;;;12.93;100.00;100649.16;5088279;28;20327;-69
2021/08/26 05:05:30;;;;;;;11.95;1.67;;;;;;;12.95;100.00;100655.19;5087947;28;20051;-69
2021/08/26 05:07:56;;;;;;;12.13;3.17;;;;;;;12.96;98.75;100657.66;5088213;28;20660;-69
2021/08/26 05:10:21;;;;;;;8.77;2.53;;;;;;;12.97;98.11;100637.91;5088271;28;20277;-69
2021/08/26 05:12:47;;;;;;;8.37;2.17;;;;;;;12.99;97.96;100624.31;5088135;28;20226;-69
2021/08/26 05:15:12;;;;;;;8.53;1.60;;;;;;;13.13;97.80;100626.19;5088812;28;20043;-69
2021/08/26 05:17:37;;;;;;;4.83;1.60;;;;;;;13.15;96.98;100639.41;5087614;28;20032;-69
2021/08/26 05:20:03;;;;;;;7.03;1.10;;;;;;;13.18;96.48;100641.72;5086133;28;20032;-69
2021/08/26 05:22:29;;;;;;;11.43;1.63;;;;;;;13.23;96.31;100629.47;5087376;28;20031;-69
2021/08/26 05:24:54;;;;;;;9.60;2.00;;;;;;;13.34;95.96;100644.28;5086207;28;20050;-69
2021/08/26 05:27:20;;;;;;;8.03;1.07;;;;;;;13.47;95.44;100649.84;5086180;28;20068;-69
2021/08/26 05:29:46;;;;;;;8.68;1.23;;;;;;;13.47;94.69;100644.47;5086326;28;20454;-69
2021/08/26 05:32:11;;;;;;;8.20;1.88;;;;;;;13.64;95.45;100649.69;5086785;28;20040;-69
2021/08/26 05:34:37;;;;;;;5.20;1.40;;;;;;;13.66;94.66;100645.78;5087502;28;20067;-69
2021/08/26 05:37:02;;;;;;;7.70;1.70;;;;;;;13.72;93.69;100653.09;5087528;28;20032;-69
2021/08/26 05:39:28;;;;;;;5.95;1.58;;;;;;;13.74;93.29;100666.31;5087796;28;20461;-69
2021/08/26 05:41:53;;;;;;;5.87;1.50;;;;;;;13.75;92.70;100659.94;5086917;28;20043;-69
2021/08/26 05:44:19;;;;;;;9.73;2.10;;;;;;;13.79;92.51;100666.63;5088527;28;20078;-69
2021/08/26 05:46:45;;;;;;;10.63;2.03;;;;;;;13.79;91.34;100663.94;5088239;28;20032;-69
2021/08/26 05:49:10;;;;;;;7.00;1.05;;;;;;;13.86;90.54;100670.22;5088509;28;20036;-69
2021/08/26 05:51:36;;;;;;;8.53;1.27;;;;;;;13.95;90.07;100673.63;5088125;28;20041;-69
2021/08/26 05:54:02;;;;;;;6.38;1.75;;;;;;;14.08;89.04;100662.22;5088418;28;20028;-69
2021/08/26 05:56:27;;;;;;;13.77;1.52;;;;;;;14.13;90.22;100654.44;5087184;28;20036;-70
2021/08/26 05:58:53;;;;;;;3.93;0.60;;;;;;;14.10;90.97;100654.84;5087677;28;20043;-69
2021/08/26 06:01:19;;;;;;;9.38;1.60;;;;;;;14.18;90.10;100652.03;5088348;28;20028;-69
2021/08/26 06:03:44;;;;;;;7.20;1.33;;;;;;;14.19;89.90;100659.06;5087384;28;20116;-69
2021/08/26 06:06:09;;;;;;;10.23;1.13;;;;;;;14.29;90.16;100654.22;5087879;28;20032;-69
2021/08/26 06:08:35;;;;;;;11.23;2.10;;;;;;;14.24;88.77;100656.66;5088601;28;20602;-69
2021/08/26 06:11:00;;;;;;;7.63;1.10;;;;;;;14.45;88.26;100657.72;5087698;28;20094;-69
2021/08/26 06:13:26;;;;;;;3.10;1.20;;;;;;;14.59;88.22;100669.47;5088030;28;20040;-69
2021/08/26 06:15:51;;;;;;;5.93;0.85;;;;;;;15.28;86.99;100658.09;5088170;28;20449;-69
2021/08/26 06:18:17;;;;;;;6.83;1.03;;;;;;;17.02;79.13;100663.16;5086915;28;20051;-69
2021/08/26 06:20:43;;;;;;;;;;;;;;;18.26;72.83;100665.03;5088887;28;20036;-69
2021/08/26 06:23:08;;;;;;;;;;;;;;;18.45;70.97;100670.53;5087537;28;20398;-69
2021/08/26 06:25:34;;;;;;;5.83;1.23;;;;;;;18.85;68.86;100664.94;5087270;28;20010;-69
2021/08/26 06:28:00;;;;;;;7.83;1.57;;;;;;;18.61;68.18;100667.31;5086898;28;20032;-70
2021/08/26 06:30:26;;;;;;;8.30;1.08;;;;;;;18.35;68.38;100671.00;5087413;28;20032;-69
2021/08/26 06:32:51;;;;;;;8.98;1.10;;;;;;;18.25;67.17;100670.66;5087629;28;20040;-69
2021/08/26 06:35:17;;;;;;;5.53;1.27;;;;;;;17.89;66.28;100667.47;5087184;28;20040;-70
2021/08/26 06:37:42;;;;;;;4.33;1.43;;;;;;;18.11;65.73;100651.78;5087806;28;20063;-70
2021/08/26 06:40:09;;;;;;;3.10;0.67;;;;;;;18.30;65.79;100671.66;5087301;28;20314;-70
2021/08/26 06:42:35;;;;;;;4.22;0.90;;;;;;;18.00;65.36;100649.75;5087847;28;20028;-70
2021/08/26 06:45:00;;;;;;;7.28;0.90;;;;;;;18.10;64.81;100663.66;5086998;28;20046;-70
2021/08/26 06:47:25;;;;;;;3.23;0.93;;;;;;;19.08;64.14;100659.75;5086827;28;20044;-70
2021/08/26 06:49:51;;;;;;;5.63;1.97;;;;;;;18.58;64.23;100667.75;5088112;28;20059;-70
2021/08/26 06:52:16;;;;;;;3.90;1.50;;;;;;;18.52;65.56;100671.34;5090005;28;20032;-70
2021/08/26 06:54:42;;;;;;;6.57;1.13;;;;;;;19.29;62.61;100671.22;5090724;28;20408;-70
2021/08/26 06:57:07;;;;;;;8.27;1.23;;;;;;;19.37;62.55;100682.59;5091788;28;20266;-70
2021/08/26 06:59:32;;;;;;;3.57;1.03;;;;;;;18.63;63.45;100673.34;5109972;22;20045;-69
2021/08/26 07:01:58;;;;;;;3.33;0.80;;;;;;;18.73;62.22;100681.81;5096134;22;20037;-70
2021/08/26 07:04:23;;;;;;;4.47;1.00;;;;;;;18.83;64.43;100681.38;5090137;22;20113;-68
2021/08/26 07:06:53;;;;;;;5.77;0.83;;;;;;;19.13;62.75;100688.88;5069740;28;20028;-69
2021/08/26 07:09:18;;;;;;;5.18;1.77;;;;;;;19.37;63.04;100679.91;5095204;22;20067;-84
2021/08/26 07:11:44;;;;;;;6.22;1.13;;;;;;;19.04;61.88;100690.19;5041561;28;20035;-87
2021/08/26 07:14:18;;;;;;;7.37;1.27;;;;;;;18.76;60.83;100669.75;5048643;28;20037;-87
2021/08/26 07:16:49;;;;;;;4.38;1.38;;;;;;;18.89;60.96;100669.66;5055190;28;20500;-85
2021/08/26 07:19:16;;;;;;;5.32;0.98;;;;;;;18.54;61.08;100669.25;5032390;28;20053;-87
2021/08/26 07:21:47;;;;;;;4.93;1.20;;;;;;;18.55;61.24;100677.13;5030613;28;20021;-86
2021/08/26 07:24:13;;;;;;;6.47;0.90;;;;;;;18.76;60.86;100684.13;5050743;28;20070;-85
2021/08/26 07:26:38;;;;;;;2.50;0.87;;;;;;;18.65;60.68;100681.25;5025566;28;20025;-86
2021/08/26 07:29:15;;;;;;;6.83;1.37;;;;;;;18.82;61.84;100693.22;5031477;28;20120;-85
2021/08/26 07:32:05;;;;;;;3.92;1.20;;;;;;;18.98;61.23;100700.81;5045873;28;20037;-87
2021/08/26 07:34:47;;;;;;;7.13;0.95;;;;;;;17.95;64.80;100695.47;5043206;28;20033;-84
2021/08/26 07:37:12;;;;;;;4.90;0.95;;;;;;;18.36;62.25;100680.78;5015565;28;20037;-84
2021/08/26 07:39:38;;;;;;;9.73;2.07;;;;;;;17.68;64.32;100698.22;5016359;28;20091;-84
2021/08/26 07:42:03;;;;;;;5.10;0.80;;;;;;;17.96;62.87;100690.91;5033476;28;20025;-84
2021/08/26 07:44:29;;;;;;;3.03;0.90;;;;;;;18.35;61.81;100701.59;5051294;28;20071;-84
2021/08/26 07:46:54;;;;;;;4.93;0.90;;;;;;;18.76;61.57;100683.25;5050315;28;20025;-84
2021/08/26 07:49:19;;;;;;;6.53;1.07;;;;;;;18.13;61.87;100687.53;5034937;28;20033;-84
2021/08/26 07:51:45;;;;;;;5.87;1.00;;;;;;;18.04;62.61;100693.38;5050611;28;20096;-83
2021/08/26 07:54:10;;;;;;;7.23;1.10;;;;;;;18.64;61.62;100695.81;5051129;28;20036;-83
2021/08/26 07:56:38;;;;;;;7.23;0.80;;;;;;;17.81;62.10;100685.75;5050969;28;20037;-85
2021/08/26 07:59:03;;;;;;;2.88;0.60;;;;;;;18.18;62.92;100688.75;5034499;28;20079;-84
2021/08/26 08:01:29;;;;;;;6.70;1.37;;;;;;;18.08;61.29;100691.94;5034380;28;20052;-83
2021/08/26 08:03:55;;;;;;;8.63;1.00;;;;;;;18.48;61.62;100680.94;5034393;28;20025;-83
2021/08/26 08:06:21;;;;;;;4.20;1.00;;;;;;;18.79;59.85;100709.91;5050998;28;20090;-83
2021/08/26 08:08:46;;;;;;;5.43;0.70;;;;;;;19.57;58.76;100695.13;5035026;28;20043;-83
2021/08/26 08:11:11;;;;;;;8.93;1.23;;;;;;;18.98;58.86;100684.56;5034828;28;20064;-83
2021/08/26 08:13:37;;;;;;;3.73;0.77;;;;;;;19.16;59.67;100693.81;5034286;28;20036;-84
2021/08/26 08:16:04;;;;;;;4.90;1.20;;;;;;;17.73;62.45;100693.00;5052402;28;20033;-85
2021/08/26 08:18:29;;;;;;;2.53;0.88;;;;;;;17.44;63.76;100690.75;5034659;28;20131;-85
2021/08/26 08:20:55;;;;;;;4.90;0.73;;;;;;;17.22;64.08;100682.06;5051411;28;20067;-85
2021/08/26 08:23:20;;;;;;;2.97;0.83;;;;;;;16.98;62.60;100695.13;5034891;28;20044;-85
2021/08/26 08:25:45;;;;;;;5.40;0.77;;;;;;;17.01;64.49;100691.19;5035532;28;20286;-85
2021/08/26 08:28:16;;;;;;;4.03;0.80;;;;;;;17.91;60.85;100697.78;5035479;28;20440;-86
2021/08/26 08:30:45;;;;;;;3.42;0.70;;;;;;;18.20;59.70;100700.19;5035049;28;20131;-83
2021/08/26 08:33:11;;;;;;;2.00;0.80;;;;;;;18.79;58.13;100698.25;5034096;28;20784;-84
2021/08/26 08:35:36;;;;;;;3.33;1.10;;;;;;;19.29;58.10;100699.13;5051447;28;20043;-85
2021/08/26 08:38:02;;;;;;;2.83;0.70;;;;;;;19.09;58.43;100709.28;5026962;28;20037;-84
2021/08/26 08:40:28;;;;;;;5.57;0.82;;;;;;;20.11;56.01;100687.28;5032299;28;20045;-85
2021/08/26 08:42:53;;;;;;;3.08;0.60;;;;;;;19.26;56.87;100702.28;5031017;28;20029;-84
2021/08/26 08:45:19;;;;;;;6.00;0.97;;;;;;;20.02;54.75;100719.28;5031140;28;20038;-84
2021/08/26 08:47:47;;;;;;;5.38;0.90;;;;;;;19.97;55.72;100702.84;5030121;28;20026;-84
2021/08/26 08:50:14;;;;;;;3.70;0.68;;;;;;;19.70;54.19;100702.34;5031115;28;20183;-84
2021/08/26 08:52:40;;;;;;;2.80;0.70;;;;;;;18.55;59.45;100706.06;5014995;28;20545;-85
2021/08/26 08:55:09;;;;;;;3.97;1.00;;;;;;;17.97;61.38;100716.88;5031311;28;20740;-85
2021/08/26 08:57:38;;;;;;;5.55;1.10;;;;;;;18.41;60.71;100713.41;5030973;28;20076;-83
2021/08/26 09:00:12;;;;;;;11.75;1.08;;;;;;;18.80;59.41;100703.47;5015063;28;20037;-84
2021/08/26 09:02:49;;;;;;;1.90;0.75;;;;;;;17.67;60.73;100717.31;5050129;28;20029;-84
2021/08/26 09:06:19;;;;;;;2.88;0.98;;;;;;;17.70;59.37;100725.84;5033732;28;20055;-86
2021/08/26 09:10:13;;;;;;;4.47;0.82;;;;;;;16.47;63.38;100727.94;4991380;28;20049;-84
2021/08/26 09:12:52;;;;;;;4.53;1.13;;;;;;;18.68;58.97;100727.63;4975702;28;20045;-86
2021/08/26 09:15:20;;;;;;;12.23;1.95;;;;;;;19.34;58.28;100731.78;4958878;28;20046;-84
2021/08/26 09:17:47;;;;;;;5.70;0.90;;;;;;;19.12;57.51;100725.91;5010514;23;20050;-69
2021/08/26 09:20:19;;;;;;;2.00;0.70;;;;;;;18.83;59.97;100740.88;5068508;28;20044;-69
2021/08/26 09:22:46;;;;;;;6.80;0.80;;;;;;;20.00;56.98;100726.81;5068755;28;20422;-69
2021/08/26 09:25:14;;;;;;;2.60;0.90;;;;;;;20.44;55.29;100724.84;5067578;28;20044;-69
2021/08/26 09:27:44;;;;;;;4.10;0.65;;;;;;;19.38;56.24;100735.69;5068419;28;20364;-69
2021/08/26 09:30:19;;;;;;;3.20;0.47;;;;;;;17.92;59.29;100739.13;5076446;22;20040;-70
2021/08/26 09:32:59;;;;;;;7.15;1.33;;;;;;;16.77;62.74;100735.72;5068216;28;20032;-69
2021/08/26 09:35:30;;;;;;;4.63;0.50;;;;;;;16.63;64.56;100738.38;5067327;28;20028;-70
2021/08/26 09:37:58;;;;;;;4.35;1.20;;;;;;;16.59;65.16;100742.50;5067334;28;20400;-69
2021/08/26 09:40:29;;;;;;;9.30;1.30;;;;;;;17.23;63.91;100738.53;5066211;28;20031;-70
2021/08/26 09:43:03;;;;;;;5.20;0.95;;;;;;;18.69;61.28;100736.56;5067229;28;20078;-70
2021/08/26 09:45:32;;;;;;;5.57;1.83;;;;;;;17.88;60.77;100727.06;5049192;28;20048;-70
2021/08/26 09:50:49;;;;;;;1.77;0.88;;;;;;;17.43;63.62;100737.69;5062418;22;20466;-67
2021/08/26 09:53:18;;;;;;;2.50;0.82;;;;;;;16.58;62.72;100718.47;5006002;28;20049;-68
2021/08/26 09:58:24;;;;;;;;;;;;;;;16.16;66.34;100742.72;5032471;23;20050;-70
2021/08/26 10:01:22;;;;;;;8.13;1.25;;;;;;;15.76;67.86;100742.50;5044150;23;20261;-69
2021/08/26 10:04:28;;;;;;;4.57;0.90;;;;;;;15.53;67.94;100740.00;5038463;23;20496;-68
2021/08/26 10:06:55;;;;;;;7.40;1.30;;;;;;;15.54;68.45;100752.44;5026480;28;20077;-68
2021/08/26 10:09:22;;;;;;;5.07;0.90;;;;;;;15.55;69.12;100747.91;5050747;23;20040;-68
2021/08/26 10:11:48;;;;;;;2.55;0.60;;;;;;;15.62;68.02;100755.00;5046419;28;20291;-68
2021/08/26 10:14:14;;;;;;;3.60;0.85;;;;;;;15.87;66.48;100749.19;5047065;28;20029;-68
2021/08/26 10:16:41;;;;;;;2.83;0.60;;;;;;;15.74;65.81;100751.81;5059890;23;20461;-68
2021/08/26 10:19:07;;;;;;;4.57;0.60;;;;;;;15.85;66.48;100745.88;5057807;23;20057;-68
2021/08/26 10:21:33;;;;;;;5.78;0.80;;;;;;;16.15;65.86;100756.38;5037582;23;20358;-68
2021/08/26 10:23:58;;;;;;;5.63;0.80;;;;;;;16.35;65.30;100754.63;5026698;28;20028;-68
2021/08/26 10:28:50;;;;;;;2.13;0.70;;;;;;;16.14;64.33;100750.19;5070629;23;20052;-68
2021/08/26 10:34:20;;;;;;;3.05;0.70;;;;;;;17.14;63.30;100761.34;5035838;23;20041;-69
2021/08/26 10:37:07;;;;;;;3.72;1.05;;;;;;;17.90;60.91;100760.09;5047254;28;20048;-69
2021/08/26 10:39:40;;;;;;;2.60;0.65;;;;;;;17.88;62.41;100763.00;5045805;22;21559;-69
2021/08/26 10:42:18;;;;;;;1.55;0.65;;;;;;;17.12;63.20;100758.03;5065951;22;20057;-69
2021/08/26 10:45:11;;;;;;;2.40;0.85;;;;;;;17.14;63.72;100771.28;5050723;28;20074;-69
2021/08/26 10:50:38;;;;;;;7.10;0.80;;;;;;;16.07;65.77;100753.88;5075066;22;20056;-68
2021/08/26 10:53:24;;;;;;;3.80;0.75;;;;;;;15.90;68.51;100762.25;5071067;28;20044;-68
2021/08/26 10:55:51;;;;;;;2.83;0.90;;;;;;;16.20;67.61;100770.94;5070714;28;20044;-68
2021/08/26 10:58:23;;;;;;;4.70;0.90;;;;;;;16.30;67.83;100785.91;5071516;28;20032;-68
2021/08/26 11:00:58;;;;;;;2.10;0.65;;;;;;;15.71;68.11;100779.94;5070243;28;20090;-68
2021/08/26 11:03:47;;;;;;;2.55;0.93;;;;;;;15.41;68.89;100784.63;5071150;28;20448;-68
2021/08/26 11:06:19;;;;;;;2.53;0.60;;;;;;;15.60;68.52;100775.88;5066944;28;20040;-68
2021/08/26 11:08:55;;;;;;;4.70;0.95;;;;;;;15.46;69.32;100763.34;5084065;22;20249;-68
2021/08/26 11:11:29;;;;;;;2.25;0.70;;;;;;;15.54;68.03;100782.03;5070901;28;20047;-68
2021/08/26 11:14:04;;;;;;;4.03;0.98;;;;;;;15.54;68.32;100776.66;5070976;28;20032;-68
2021/08/26 11:16:29;;;;;;;6.68;0.98;;;;;;;15.57;67.71;100776.28;5080156;22;20049;-68
2021/08/26 11:18:56;;;;;;;1.50;0.93;;;;;;;15.75;68.26;100786.56;5070769;28;20032;-68
2021/08/26 11:23:52;;;;;;;3.78;0.80;;;;;;;16.03;67.07;100785.75;5050644;22;20053;-68
2021/08/26 11:26:46;;;;;;;1.17;0.40;;;;;;;16.15;67.43;100777.94;5030252;28;20033;-68
2021/08/26 11:29:17;;;;;;;8.03;0.70;;;;;;;15.90;67.38;100786.50;5022443;22;1066575;-68
2021/08/26 11:32:06;;;;;;;5.63;0.68;;;;;;;16.25;67.03;100786.50;5081652;22;20029;-69
2021/08/26 11:34:56;;;;;;;5.80;0.80;;;;;;;16.33;66.51;100783.63;5070534;28;20476;-69
2021/08/26 11:37:28;;;;;;;3.03;0.85;;;;;;;16.45;65.14;100773.94;5070153;28;20048;-69
2021/08/26 11:39:55;;;;;;;4.60;0.75;;;;;;;16.96;64.76;100785.38;5069860;28;20063;-69
2021/08/26 11:42:26;;;;;;;2.13;0.80;;;;;;;17.09;64.99;100783.53;5069561;28;20376;-70
2021/08/26 11:45:15;;;;;;;2.72;0.57;;;;;;;17.15;63.69;100779.19;5069497;28;20407;-70
2021/08/26 11:47:45;;;;;;;5.53;1.10;;;;;;;17.01;63.15;100782.88;5070161;28;20036;-70
2021/08/26 11:50:18;;;;;;;3.75;1.30;;;;;;;16.97;64.42;100784.31;5070576;28;20417;-69
2021/08/26 11:52:48;;;;;;;3.90;0.98;;;;;;;17.10;64.94;100803.25;5068870;28;20464;-69
2021/08/26 11:55:14;;;;;;;5.47;0.68;;;;;;;17.15;64.48;100795.38;5069262;28;20032;-71